sensor_id;sensor_type;location;lat;lon;timestamp;P1;durP1;ratioP1;P2;durP2;ratioP2
16181;SDS011;8197;51.664;7.114;2023-09-08T00:04:14;21.93;;;6.30;;
16181;SDS011;8197;51.664;7.114;2023-09-08T00:09:18;21.37;;;6.37;;
16181;SDS011;8197;51.664;7.114;2023-09-08T00:14:22;22.00;;;5.77;;
16181;SDS011;8197;51.664;7.114;2023-09-08T00:19:25;24.77;;;6.87;;
16181;SDS011;8197;51.664;7.114;2023-09-08T00:24:28;31.33;;;7.27;;
16181;SDS011;8197;51.664;7.114;2023-09-08T00:29:32;21.40;;;6.73;;
16181;SDS011;8197;51.664;7.114;2023-09-08T00:34:35;23.20;;;6.80;;
16181;SDS011;8197;51.664;7.114;2023-09-08T00:39:38;23.93;;;7.90;;
16181;SDS011;8197;51.664;7.114;2023-09-08T00:44:42;26.63;;;6.40;;
16181;SDS011;8197;51.664;7.114;2023-09-08T00:49:45;20.87;;;5.87;;
16181;SDS011;8197;51.664;7.114;2023-09-08T00:54:50;30.20;;;6.80;;
16181;SDS011;8197;51.664;7.114;2023-09-08T00:59:54;22.03;;;6.43;;
16181;SDS011;8197;51.664;7.114;2023-09-08T01:04:57;23.23;;;6.10;;
16181;SDS011;8197;51.664;7.114;2023-09-08T01:10:01;28.50;;;7.83;;
16181;SDS011;8197;51.664;7.114;2023-09-08T01:15:08;23.13;;;6.70;;
16181;SDS011;8197;51.664;7.114;2023-09-08T01:20:13;23.23;;;7.87;;
16181;SDS011;8197;51.664;7.114;2023-09-08T01:25:24;32.30;;;7.93;;
16181;SDS011;8197;51.664;7.114;2023-09-08T01:30:28;23.03;;;7.87;;
16181;SDS011;8197;51.664;7.114;2023-09-08T01:35:33;31.63;;;9.10;;
16181;SDS011;8197;51.664;7.114;2023-09-08T01:40:38;26.57;;;7.97;;
16181;SDS011;8197;51.664;7.114;2023-09-08T01:45:41;26.87;;;6.80;;
16181;SDS011;8197;51.664;7.114;2023-09-08T01:50:44;21.40;;;6.13;;
16181;SDS011;8197;51.664;7.114;2023-09-08T01:55:50;27.27;;;6.10;;
16181;SDS011;8197;51.664;7.114;2023-09-08T02:00:54;22.30;;;6.90;;
16181;SDS011;8197;51.664;7.114;2023-09-08T02:06:01;23.43;;;6.80;;
16181;SDS011;8197;51.664;7.114;2023-09-08T02:11:05;23.50;;;6.70;;
16181;SDS011;8197;51.664;7.114;2023-09-08T02:16:12;22.83;;;6.30;;
16181;SDS011;8197;51.664;7.114;2023-09-08T02:21:15;26.70;;;8.27;;
16181;SDS011;8197;51.664;7.114;2023-09-08T02:26:20;24.47;;;8.47;;
16181;SDS011;8197;51.664;7.114;2023-09-08T02:31:22;25.33;;;7.50;;
16181;SDS011;8197;51.664;7.114;2023-09-08T02:36:26;22.10;;;6.60;;
16181;SDS011;8197;51.664;7.114;2023-09-08T02:41:30;26.50;;;6.87;;
16181;SDS011;8197;51.664;7.114;2023-09-08T02:46:33;28.00;;;8.87;;
16181;SDS011;8197;51.664;7.114;2023-09-08T02:51:36;25.17;;;8.83;;
16181;SDS011;8197;51.664;7.114;2023-09-08T02:56:40;25.20;;;8.70;;
16181;SDS011;8197;51.664;7.114;2023-09-08T03:01:44;30.60;;;9.00;;
16181;SDS011;8197;51.664;7.114;2023-09-08T03:06:47;26.97;;;8.70;;
16181;SDS011;8197;51.664;7.114;2023-09-08T03:11:51;26.73;;;9.77;;
16181;SDS011;8197;51.664;7.114;2023-09-08T03:16:54;26.67;;;9.23;;
16181;SDS011;8197;51.664;7.114;2023-09-08T03:21:57;29.93;;;10.53;;
16181;SDS011;8197;51.664;7.114;2023-09-08T03:27:01;27.93;;;10.03;;
16181;SDS011;8197;51.664;7.114;2023-09-08T03:32:05;26.90;;;10.33;;
16181;SDS011;8197;51.664;7.114;2023-09-08T03:37:08;30.67;;;11.07;;
16181;SDS011;8197;51.664;7.114;2023-09-08T03:42:12;31.13;;;10.27;;
16181;SDS011;8197;51.664;7.114;2023-09-08T03:47:15;29.17;;;10.80;;
16181;SDS011;8197;51.664;7.114;2023-09-08T03:52:18;26.03;;;10.20;;
16181;SDS011;8197;51.664;7.114;2023-09-08T03:57:22;28.63;;;10.27;;
16181;SDS011;8197;51.664;7.114;2023-09-08T04:02:25;33.07;;;10.60;;
16181;SDS011;8197;51.664;7.114;2023-09-08T04:07:28;25.87;;;10.50;;
16181;SDS011;8197;51.664;7.114;2023-09-08T04:12:32;28.73;;;9.07;;
16181;SDS011;8197;51.664;7.114;2023-09-08T04:17:35;28.10;;;10.57;;
16181;SDS011;8197;51.664;7.114;2023-09-08T04:22:39;28.83;;;10.70;;
16181;SDS011;8197;51.664;7.114;2023-09-08T04:27:43;27.20;;;10.53;;
16181;SDS011;8197;51.664;7.114;2023-09-08T04:32:46;28.70;;;10.60;;
16181;SDS011;8197;51.664;7.114;2023-09-08T04:37:49;27.90;;;11.00;;
16181;SDS011;8197;51.664;7.114;2023-09-08T04:42:53;30.97;;;11.87;;
16181;SDS011;8197;51.664;7.114;2023-09-08T04:47:56;29.63;;;10.03;;
16181;SDS011;8197;51.664;7.114;2023-09-08T04:52:59;28.73;;;9.90;;
16181;SDS011;8197;51.664;7.114;2023-09-08T04:58:04;29.07;;;11.27;;
16181;SDS011;8197;51.664;7.114;2023-09-08T05:03:07;34.73;;;11.93;;
16181;SDS011;8197;51.664;7.114;2023-09-08T05:08:10;26.67;;;10.87;;
16181;SDS011;8197;51.664;7.114;2023-09-08T05:13:16;33.40;;;10.00;;
16181;SDS011;8197;51.664;7.114;2023-09-08T05:18:31;41.87;;;11.83;;
16181;SDS011;8197;51.664;7.114;2023-09-08T05:23:35;31.40;;;10.10;;
16181;SDS011;8197;51.664;7.114;2023-09-08T05:28:39;27.30;;;10.20;;
16181;SDS011;8197;51.664;7.114;2023-09-08T05:33:44;26.30;;;9.10;;
16181;SDS011;8197;51.664;7.114;2023-09-08T05:38:47;36.73;;;9.97;;
16181;SDS011;8197;51.664;7.114;2023-09-08T05:43:51;30.00;;;11.20;;
16181;SDS011;8197;51.664;7.114;2023-09-08T05:48:54;29.27;;;10.67;;
16181;SDS011;8197;51.664;7.114;2023-09-08T05:53:58;27.00;;;11.07;;
16181;SDS011;8197;51.664;7.114;2023-09-08T05:59:03;27.83;;;10.00;;
16181;SDS011;8197;51.664;7.114;2023-09-08T06:04:06;28.43;;;11.00;;
16181;SDS011;8197;51.664;7.114;2023-09-08T06:09:09;24.07;;;8.23;;
16181;SDS011;8197;51.664;7.114;2023-09-08T06:14:14;29.30;;;9.70;;
16181;SDS011;8197;51.664;7.114;2023-09-08T06:19:17;24.93;;;9.07;;
16181;SDS011;8197;51.664;7.114;2023-09-08T06:24:20;25.83;;;8.50;;
16181;SDS011;8197;51.664;7.114;2023-09-08T06:29:25;29.60;;;8.63;;
16181;SDS011;8197;51.664;7.114;2023-09-08T06:34:28;31.17;;;8.97;;
16181;SDS011;8197;51.664;7.114;2023-09-08T06:39:31;35.07;;;9.37;;
16181;SDS011;8197;51.664;7.114;2023-09-08T06:44:35;25.70;;;8.67;;
16181;SDS011;8197;51.664;7.114;2023-09-08T06:49:41;29.20;;;8.20;;
16181;SDS011;8197;51.664;7.114;2023-09-08T06:54:44;27.00;;;7.10;;
16181;SDS011;8197;51.664;7.114;2023-09-08T06:59:49;23.23;;;7.83;;
16181;SDS011;8197;51.664;7.114;2023-09-08T07:04:52;29.33;;;8.00;;
16181;SDS011;8197;51.664;7.114;2023-09-08T07:09:55;24.40;;;7.30;;
16181;SDS011;8197;51.664;7.114;2023-09-08T07:15:00;26.00;;;7.20;;
16181;SDS011;8197;51.664;7.114;2023-09-08T07:20:03;26.73;;;6.63;;
16181;SDS011;8197;51.664;7.114;2023-09-08T07:25:07;23.40;;;6.73;;
16181;SDS011;8197;51.664;7.114;2023-09-08T07:30:12;25.73;;;6.70;;
16181;SDS011;8197;51.664;7.114;2023-09-08T07:35:16;28.63;;;6.87;;
16181;SDS011;8197;51.664;7.114;2023-09-08T07:40:23;22.20;;;5.73;;
16181;SDS011;8197;51.664;7.114;2023-09-08T07:45:27;21.27;;;5.60;;
16181;SDS011;8197;51.664;7.114;2023-09-08T07:50:30;22.87;;;5.60;;
16181;SDS011;8197;51.664;7.114;2023-09-08T07:55:33;22.17;;;6.10;;
16181;SDS011;8197;51.664;7.114;2023-09-08T08:00:37;30.33;;;5.83;;
16181;SDS011;8197;51.664;7.114;2023-09-08T08:05:40;20.00;;;5.93;;
16181;SDS011;8197;51.664;7.114;2023-09-08T08:10:43;19.20;;;5.60;;
16181;SDS011;8197;51.664;7.114;2023-09-08T08:15:48;24.87;;;5.57;;
16181;SDS011;8197;51.664;7.114;2023-09-08T08:20:51;19.47;;;5.17;;
16181;SDS011;8197;51.664;7.114;2023-09-08T08:25:56;25.70;;;5.90;;
16181;SDS011;8197;51.664;7.114;2023-09-08T08:31:00;22.23;;;4.80;;
16181;SDS011;8197;51.664;7.114;2023-09-08T08:36:06;19.03;;;5.50;;
16181;SDS011;8197;51.664;7.114;2023-09-08T08:41:10;24.80;;;4.90;;
16181;SDS011;8197;51.664;7.114;2023-09-08T08:46:16;21.00;;;5.13;;
16181;SDS011;8197;51.664;7.114;2023-09-08T08:51:22;21.53;;;5.00;;
16181;SDS011;8197;51.664;7.114;2023-09-08T08:56:26;21.20;;;6.23;;
16181;SDS011;8197;51.664;7.114;2023-09-08T09:01:31;24.40;;;4.80;;
16181;SDS011;8197;51.664;7.114;2023-09-08T09:06:34;20.53;;;5.07;;
16181;SDS011;8197;51.664;7.114;2023-09-08T09:11:37;18.10;;;4.80;;
16181;SDS011;8197;51.664;7.114;2023-09-08T09:16:43;18.43;;;4.43;;
16181;SDS011;8197;51.664;7.114;2023-09-08T09:21:47;19.53;;;4.90;;
16181;SDS011;8197;51.664;7.114;2023-09-08T09:26:52;21.33;;;5.43;;
16181;SDS011;8197;51.664;7.114;2023-09-08T09:31:57;21.10;;;5.23;;
16181;SDS011;8197;51.664;7.114;2023-09-08T09:37:05;20.70;;;5.17;;
16181;SDS011;8197;51.664;7.114;2023-09-08T09:42:08;28.13;;;5.53;;
16181;SDS011;8197;51.664;7.114;2023-09-08T09:47:12;21.20;;;5.07;;
16181;SDS011;8197;51.664;7.114;2023-09-08T09:52:20;24.50;;;5.67;;
16181;SDS011;8197;51.664;7.114;2023-09-08T09:57:24;19.63;;;5.53;;
16181;SDS011;8197;51.664;7.114;2023-09-08T10:02:30;20.20;;;5.83;;
16181;SDS011;8197;51.664;7.114;2023-09-08T10:07:33;20.40;;;4.70;;
16181;SDS011;8197;51.664;7.114;2023-09-08T10:12:36;21.57;;;6.03;;
16181;SDS011;8197;51.664;7.114;2023-09-08T10:17:42;19.57;;;4.80;;
16181;SDS011;8197;51.664;7.114;2023-09-08T10:22:47;20.00;;;5.23;;
16181;SDS011;8197;51.664;7.114;2023-09-08T10:27:55;21.93;;;6.00;;
16181;SDS011;8197;51.664;7.114;2023-09-08T10:32:59;22.30;;;5.80;;
16181;SDS011;8197;51.664;7.114;2023-09-08T10:38:22;21.60;;;5.60;;
16181;SDS011;8197;51.664;7.114;2023-09-08T10:43:26;21.30;;;5.13;;
16181;SDS011;8197;51.664;7.114;2023-09-08T10:48:31;21.33;;;5.10;;
16181;SDS011;8197;51.664;7.114;2023-09-08T10:53:46;20.03;;;5.03;;
16181;SDS011;8197;51.664;7.114;2023-09-08T10:58:50;24.53;;;5.20;;
16181;SDS011;8197;51.664;7.114;2023-09-08T11:03:56;20.27;;;5.27;;
16181;SDS011;8197;51.664;7.114;2023-09-08T11:09:06;20.20;;;5.57;;
16181;SDS011;8197;51.664;7.114;2023-09-08T11:14:09;19.00;;;4.93;;
16181;SDS011;8197;51.664;7.114;2023-09-08T11:19:13;22.07;;;5.00;;
16181;SDS011;8197;51.664;7.114;2023-09-08T11:24:17;18.30;;;5.03;;
16181;SDS011;8197;51.664;7.114;2023-09-08T11:29:20;23.30;;;5.30;;
16181;SDS011;8197;51.664;7.114;2023-09-08T11:34:24;19.50;;;5.03;;
16181;SDS011;8197;51.664;7.114;2023-09-08T11:39:27;23.83;;;4.73;;
16181;SDS011;8197;51.664;7.114;2023-09-08T11:44:30;19.77;;;5.13;;
16181;SDS011;8197;51.664;7.114;2023-09-08T11:49:35;19.50;;;4.73;;
16181;SDS011;8197;51.664;7.114;2023-09-08T11:54:39;19.57;;;4.53;;
16181;SDS011;8197;51.664;7.114;2023-09-08T12:00:00;18.60;;;5.03;;
16181;SDS011;8197;51.664;7.114;2023-09-08T12:05:12;17.60;;;4.20;;
16181;SDS011;8197;51.664;7.114;2023-09-08T12:10:15;23.33;;;5.60;;
16181;SDS011;8197;51.664;7.114;2023-09-08T12:15:31;20.60;;;4.87;;
16181;SDS011;8197;51.664;7.114;2023-09-08T12:20:37;20.57;;;5.03;;
16181;SDS011;8197;51.664;7.114;2023-09-08T12:25:44;17.63;;;4.70;;
16181;SDS011;8197;51.664;7.114;2023-09-08T12:30:48;19.03;;;5.00;;
16181;SDS011;8197;51.664;7.114;2023-09-08T12:35:52;21.30;;;5.23;;
16181;SDS011;8197;51.664;7.114;2023-09-08T12:40:55;18.70;;;4.67;;
16181;SDS011;8197;51.664;7.114;2023-09-08T12:45:58;18.00;;;4.33;;
16181;SDS011;8197;51.664;7.114;2023-09-08T12:51:03;19.40;;;4.43;;
16181;SDS011;8197;51.664;7.114;2023-09-08T12:56:05;18.30;;;4.80;;
16181;SDS011;8197;51.664;7.114;2023-09-08T13:01:08;22.83;;;4.40;;
16181;SDS011;8197;51.664;7.114;2023-09-08T13:06:13;17.63;;;4.60;;
16181;SDS011;8197;51.664;7.114;2023-09-08T13:11:16;20.57;;;4.70;;
16181;SDS011;8197;51.664;7.114;2023-09-08T13:16:19;21.40;;;4.90;;
16181;SDS011;8197;51.664;7.114;2023-09-08T13:21:23;18.70;;;4.73;;
16181;SDS011;8197;51.664;7.114;2023-09-08T13:26:26;17.40;;;4.20;;
16181;SDS011;8197;51.664;7.114;2023-09-08T13:31:29;18.37;;;4.60;;
16181;SDS011;8197;51.664;7.114;2023-09-08T13:36:33;19.43;;;5.23;;
16181;SDS011;8197;51.664;7.114;2023-09-08T13:41:46;19.97;;;5.40;;
16181;SDS011;8197;51.664;7.114;2023-09-08T13:46:51;20.20;;;4.37;;
16181;SDS011;8197;51.664;7.114;2023-09-08T13:51:57;18.73;;;4.47;;
16181;SDS011;8197;51.664;7.114;2023-09-08T13:57:05;18.90;;;5.00;;
16181;SDS011;8197;51.664;7.114;2023-09-08T14:02:09;19.33;;;5.23;;
16181;SDS011;8197;51.664;7.114;2023-09-08T14:07:16;19.70;;;5.10;;
16181;SDS011;8197;51.664;7.114;2023-09-08T14:12:23;19.40;;;4.63;;
16181;SDS011;8197;51.664;7.114;2023-09-08T14:17:35;22.27;;;5.40;;
16181;SDS011;8197;51.664;7.114;2023-09-08T14:22:40;19.60;;;4.23;;
16181;SDS011;8197;51.664;7.114;2023-09-08T14:27:43;19.27;;;4.80;;
16181;SDS011;8197;51.664;7.114;2023-09-08T14:32:46;17.70;;;4.90;;
16181;SDS011;8197;51.664;7.114;2023-09-08T14:37:50;18.60;;;4.63;;
16181;SDS011;8197;51.664;7.114;2023-09-08T14:42:53;18.77;;;5.00;;
16181;SDS011;8197;51.664;7.114;2023-09-08T14:47:56;20.40;;;4.70;;
16181;SDS011;8197;51.664;7.114;2023-09-08T14:53:03;21.73;;;5.47;;
16181;SDS011;8197;51.664;7.114;2023-09-08T14:58:08;18.70;;;4.57;;
16181;SDS011;8197;51.664;7.114;2023-09-08T15:03:12;17.80;;;4.37;;
16181;SDS011;8197;51.664;7.114;2023-09-08T15:08:16;19.77;;;5.33;;
16181;SDS011;8197;51.664;7.114;2023-09-08T15:13:19;20.23;;;5.17;;
16181;SDS011;8197;51.664;7.114;2023-09-08T15:18:31;18.40;;;4.50;;
16181;SDS011;8197;51.664;7.114;2023-09-08T15:23:36;19.40;;;4.60;;
16181;SDS011;8197;51.664;7.114;2023-09-08T15:28:39;25.97;;;5.20;;
16181;SDS011;8197;51.664;7.114;2023-09-08T15:33:41;23.73;;;5.10;;
16181;SDS011;8197;51.664;7.114;2023-09-08T15:38:46;27.90;;;5.57;;
16181;SDS011;8197;51.664;7.114;2023-09-08T15:43:51;29.00;;;5.47;;
16181;SDS011;8197;51.664;7.114;2023-09-08T15:48:54;19.30;;;4.43;;
16181;SDS011;8197;51.664;7.114;2023-09-08T15:53:58;20.43;;;5.50;;
16181;SDS011;8197;51.664;7.114;2023-09-08T15:59:01;28.93;;;5.70;;
16181;SDS011;8197;51.664;7.114;2023-09-08T16:04:04;20.63;;;5.80;;
16181;SDS011;8197;51.664;7.114;2023-09-08T16:09:12;23.00;;;6.10;;
16181;SDS011;8197;51.664;7.114;2023-09-08T16:14:15;32.93;;;6.90;;
16181;SDS011;8197;51.664;7.114;2023-09-08T16:19:17;20.80;;;6.50;;
16181;SDS011;8197;51.664;7.114;2023-09-08T16:24:22;19.80;;;5.50;;
16181;SDS011;8197;51.664;7.114;2023-09-08T16:29:25;19.03;;;5.60;;
16181;SDS011;8197;51.664;7.114;2023-09-08T16:34:28;25.93;;;6.00;;
16181;SDS011;8197;51.664;7.114;2023-09-08T16:39:32;20.60;;;5.50;;
16181;SDS011;8197;51.664;7.114;2023-09-08T16:44:35;21.80;;;6.10;;
16181;SDS011;8197;51.664;7.114;2023-09-08T16:49:38;20.23;;;5.67;;
16181;SDS011;8197;51.664;7.114;2023-09-08T16:54:43;21.37;;;5.13;;
16181;SDS011;8197;51.664;7.114;2023-09-08T16:59:47;23.60;;;5.20;;
16181;SDS011;8197;51.664;7.114;2023-09-08T17:04:50;19.40;;;5.30;;
16181;SDS011;8197;51.664;7.114;2023-09-08T17:09:54;18.80;;;5.30;;
16181;SDS011;8197;51.664;7.114;2023-09-08T17:14:58;19.50;;;5.20;;
16181;SDS011;8197;51.664;7.114;2023-09-08T17:20:01;18.83;;;5.43;;
16181;SDS011;8197;51.664;7.114;2023-09-08T17:25:05;19.80;;;5.63;;
16181;SDS011;8197;51.664;7.114;2023-09-08T17:30:09;18.87;;;5.30;;
16181;SDS011;8197;51.664;7.114;2023-09-08T17:35:12;25.10;;;5.97;;
16181;SDS011;8197;51.664;7.114;2023-09-08T17:40:17;19.00;;;5.57;;
16181;SDS011;8197;51.664;7.114;2023-09-08T17:45:20;18.80;;;5.53;;
16181;SDS011;8197;51.664;7.114;2023-09-08T17:50:23;20.53;;;6.10;;
16181;SDS011;8197;51.664;7.114;2023-09-08T17:55:27;18.67;;;5.40;;
16181;SDS011;8197;51.664;7.114;2023-09-08T18:00:30;23.33;;;6.00;;
16181;SDS011;8197;51.664;7.114;2023-09-08T18:05:33;20.17;;;6.40;;
16181;SDS011;8197;51.664;7.114;2023-09-08T18:10:37;20.00;;;6.20;;
16181;SDS011;8197;51.664;7.114;2023-09-08T18:15:40;20.63;;;6.30;;
16181;SDS011;8197;51.664;7.114;2023-09-08T18:20:43;20.53;;;6.17;;
16181;SDS011;8197;51.664;7.114;2023-09-08T18:25:47;25.10;;;6.60;;
16181;SDS011;8197;51.664;7.114;2023-09-08T18:30:50;21.90;;;6.70;;
16181;SDS011;8197;51.664;7.114;2023-09-08T18:35:54;26.77;;;7.80;;
16181;SDS011;8197;51.664;7.114;2023-09-08T18:40:59;23.30;;;7.30;;
16181;SDS011;8197;51.664;7.114;2023-09-08T18:46:01;23.03;;;8.00;;
16181;SDS011;8197;51.664;7.114;2023-09-08T18:51:04;23.80;;;8.30;;
16181;SDS011;8197;51.664;7.114;2023-09-08T18:56:09;22.80;;;7.63;;
16181;SDS011;8197;51.664;7.114;2023-09-08T19:01:12;21.40;;;7.73;;
16181;SDS011;8197;51.664;7.114;2023-09-08T19:06:15;22.57;;;8.17;;
16181;SDS011;8197;51.664;7.114;2023-09-08T19:11:19;21.63;;;7.60;;
16181;SDS011;8197;51.664;7.114;2023-09-08T19:16:22;22.30;;;8.07;;
16181;SDS011;8197;51.664;7.114;2023-09-08T19:21:25;25.10;;;7.97;;
16181;SDS011;8197;51.664;7.114;2023-09-08T19:26:29;25.90;;;9.20;;
16181;SDS011;8197;51.664;7.114;2023-09-08T19:31:32;31.03;;;8.60;;
16181;SDS011;8197;51.664;7.114;2023-09-08T19:36:36;25.30;;;8.20;;
16181;SDS011;8197;51.664;7.114;2023-09-08T19:41:42;23.67;;;8.57;;
16181;SDS011;8197;51.664;7.114;2023-09-08T19:46:45;32.13;;;12.67;;
16181;SDS011;8197;51.664;7.114;2023-09-08T19:51:48;24.10;;;8.60;;
16181;SDS011;8197;51.664;7.114;2023-09-08T19:56:52;22.87;;;9.03;;
16181;SDS011;8197;51.664;7.114;2023-09-08T20:01:55;25.00;;;8.87;;
16181;SDS011;8197;51.664;7.114;2023-09-08T20:06:58;24.90;;;8.73;;
16181;SDS011;8197;51.664;7.114;2023-09-08T20:12:02;24.67;;;9.00;;
16181;SDS011;8197;51.664;7.114;2023-09-08T20:17:05;21.83;;;7.83;;
16181;SDS011;8197;51.664;7.114;2023-09-08T20:22:09;25.30;;;8.47;;
16181;SDS011;8197;51.664;7.114;2023-09-08T20:27:13;22.90;;;8.50;;
16181;SDS011;8197;51.664;7.114;2023-09-08T20:32:16;24.60;;;8.90;;
16181;SDS011;8197;51.664;7.114;2023-09-08T20:37:19;25.90;;;9.80;;
16181;SDS011;8197;51.664;7.114;2023-09-08T20:42:24;22.10;;;8.77;;
16181;SDS011;8197;51.664;7.114;2023-09-08T20:47:27;24.50;;;9.30;;
16181;SDS011;8197;51.664;7.114;2023-09-08T20:52:30;23.47;;;8.27;;
16181;SDS011;8197;51.664;7.114;2023-09-08T20:57:34;26.10;;;9.50;;
16181;SDS011;8197;51.664;7.114;2023-09-08T21:02:37;32.90;;;10.23;;
16181;SDS011;8197;51.664;7.114;2023-09-08T21:07:40;31.13;;;10.33;;
16181;SDS011;8197;51.664;7.114;2023-09-08T21:12:44;24.73;;;9.17;;
16181;SDS011;8197;51.664;7.114;2023-09-08T21:17:47;27.80;;;11.33;;
16181;SDS011;8197;51.664;7.114;2023-09-08T21:22:50;25.60;;;10.90;;
16181;SDS011;8197;51.664;7.114;2023-09-08T21:27:55;28.97;;;13.40;;
16181;SDS011;8197;51.664;7.114;2023-09-08T21:32:58;33.37;;;12.83;;
16181;SDS011;8197;51.664;7.114;2023-09-08T21:38:01;28.47;;;11.97;;
16181;SDS011;8197;51.664;7.114;2023-09-08T21:43:05;26.00;;;11.10;;
16181;SDS011;8197;51.664;7.114;2023-09-08T21:48:08;27.70;;;11.80;;
16181;SDS011;8197;51.664;7.114;2023-09-08T21:53:11;27.97;;;11.60;;
16181;SDS011;8197;51.664;7.114;2023-09-08T21:58:15;30.43;;;12.73;;
16181;SDS011;8197;51.664;7.114;2023-09-08T22:03:18;28.60;;;12.03;;
16181;SDS011;8197;51.664;7.114;2023-09-08T22:08:22;28.07;;;11.43;;
16181;SDS011;8197;51.664;7.114;2023-09-08T22:13:26;33.70;;;11.13;;
16181;SDS011;8197;51.664;7.114;2023-09-08T22:18:29;33.50;;;10.53;;
16181;SDS011;8197;51.664;7.114;2023-09-08T22:23:33;31.80;;;10.23;;
16181;SDS011;8197;51.664;7.114;2023-09-08T22:28:38;27.13;;;11.20;;
16181;SDS011;8197;51.664;7.114;2023-09-08T22:33:41;26.87;;;9.40;;
16181;SDS011;8197;51.664;7.114;2023-09-08T22:38:45;24.47;;;9.03;;
16181;SDS011;8197;51.664;7.114;2023-09-08T22:43:49;26.53;;;10.17;;
16181;SDS011;8197;51.664;7.114;2023-09-08T22:48:52;26.60;;;10.00;;
16181;SDS011;8197;51.664;7.114;2023-09-08T22:53:55;25.73;;;9.57;;
16181;SDS011;8197;51.664;7.114;2023-09-08T22:59:00;24.33;;;8.60;;
16181;SDS011;8197;51.664;7.114;2023-09-08T23:04:03;24.50;;;9.43;;
16181;SDS011;8197;51.664;7.114;2023-09-08T23:09:06;25.30;;;9.40;;
16181;SDS011;8197;51.664;7.114;2023-09-08T23:14:11;26.40;;;9.37;;
16181;SDS011;8197;51.664;7.114;2023-09-08T23:19:14;39.07;;;10.60;;
16181;SDS011;8197;51.664;7.114;2023-09-08T23:24:16;26.20;;;10.30;;
16181;SDS011;8197;51.664;7.114;2023-09-08T23:29:21;28.27;;;9.70;;
16181;SDS011;8197;51.664;7.114;2023-09-08T23:34:24;33.23;;;9.47;;
16181;SDS011;8197;51.664;7.114;2023-09-08T23:39:27;29.27;;;9.60;;
16181;SDS011;8197;51.664;7.114;2023-09-08T23:44:31;23.37;;;9.17;;
16181;SDS011;8197;51.664;7.114;2023-09-08T23:49:34;27.13;;;9.80;;
16181;SDS011;8197;51.664;7.114;2023-09-08T23:54:37;25.97;;;9.50;;
16181;SDS011;8197;51.664;7.114;2023-09-08T23:59:41;28.67;;;8.87;;
